sensor_id;sensor_type;location;lat;lon;timestamp;P1;durP1;ratioP1;P2;durP2;ratioP2
37169;SDS011;23062;13.952;100.608;2022-11-09T00:04:21;18.00;;;14.00;;
37169;SDS011;23062;13.952;100.608;2022-11-09T00:08:46;18.00;;;14.00;;
37169;SDS011;23062;13.952;100.608;2022-11-09T00:13:11;19.00;;;14.00;;
37169;SDS011;23062;13.952;100.608;2022-11-09T00:17:35;17.00;;;13.00;;
37169;SDS011;23062;13.952;100.608;2022-11-09T00:22:00;21.00;;;15.00;;
37169;SDS011;23062;13.952;100.608;2022-11-09T00:26:26;19.00;;;15.00;;
37169;SDS011;23062;13.952;100.608;2022-11-09T00:30:51;21.00;;;15.00;;
37169;SDS011;23062;13.952;100.608;2022-11-09T00:35:17;18.00;;;13.00;;
37169;SDS011;23062;13.952;100.608;2022-11-09T00:39:42;18.00;;;13.00;;
37169;SDS011;23062;13.952;100.608;2022-11-09T00:44:07;21.00;;;16.00;;
37169;SDS011;23062;13.952;100.608;2022-11-09T00:48:33;20.00;;;14.00;;
37169;SDS011;23062;13.952;100.608;2022-11-09T00:52:57;19.00;;;14.00;;
37169;SDS011;23062;13.952;100.608;2022-11-09T00:57:22;19.00;;;14.00;;
37169;SDS011;23062;13.952;100.608;2022-11-09T01:01:47;18.00;;;13.00;;
37169;SDS011;23062;13.952;100.608;2022-11-09T01:06:15;21.00;;;16.00;;
37169;SDS011;23062;13.952;100.608;2022-11-09T01:10:42;21.00;;;16.00;;
37169;SDS011;23062;13.952;100.608;2022-11-09T01:15:09;18.00;;;13.00;;
37169;SDS011;23062;13.952;100.608;2022-11-09T01:19:33;20.00;;;15.00;;
37169;SDS011;23062;13.952;100.608;2022-11-09T01:23:58;20.00;;;16.00;;
37169;SDS011;23062;13.952;100.608;2022-11-09T01:28:23;25.00;;;18.00;;
37169;SDS011;23062;13.952;100.608;2022-11-09T01:32:48;22.00;;;17.00;;
37169;SDS011;23062;13.952;100.608;2022-11-09T01:37:12;22.00;;;17.00;;
37169;SDS011;23062;13.952;100.608;2022-11-09T01:41:37;21.00;;;16.00;;
37169;SDS011;23062;13.952;100.608;2022-11-09T01:46:08;19.00;;;14.00;;
37169;SDS011;23062;13.952;100.608;2022-11-09T01:50:34;19.00;;;14.00;;
37169;SDS011;23062;13.952;100.608;2022-11-09T01:55:14;17.00;;;13.00;;
37169;SDS011;23062;13.952;100.608;2022-11-09T01:59:37;18.00;;;13.00;;
37169;SDS011;23062;13.952;100.608;2022-11-09T02:08:29;19.00;;;14.00;;
37169;SDS011;23062;13.952;100.608;2022-11-09T02:12:54;17.00;;;12.00;;
37169;SDS011;23062;13.952;100.608;2022-11-09T02:17:21;18.00;;;13.00;;
37169;SDS011;23062;13.952;100.608;2022-11-09T02:21:46;19.00;;;14.00;;
37169;SDS011;23062;13.952;100.608;2022-11-09T02:26:12;19.00;;;15.00;;
37169;SDS011;23062;13.952;100.608;2022-11-09T02:30:37;17.00;;;12.00;;
37169;SDS011;23062;13.952;100.608;2022-11-09T02:35:03;17.00;;;12.00;;
37169;SDS011;23062;13.952;100.608;2022-11-09T02:39:28;19.00;;;13.00;;
37169;SDS011;23062;13.952;100.608;2022-11-09T02:43:53;18.00;;;14.00;;
37169;SDS011;23062;13.952;100.608;2022-11-09T02:48:18;16.00;;;12.00;;
37169;SDS011;23062;13.952;100.608;2022-11-09T02:52:43;17.00;;;12.00;;
37169;SDS011;23062;13.952;100.608;2022-11-09T02:57:08;15.00;;;10.00;;
37169;SDS011;23062;13.952;100.608;2022-11-09T03:01:33;15.00;;;11.00;;
37169;SDS011;23062;13.952;100.608;2022-11-09T03:05:58;18.00;;;14.00;;
37169;SDS011;23062;13.952;100.608;2022-11-09T03:10:22;16.00;;;12.00;;
37169;SDS011;23062;13.952;100.608;2022-11-09T03:14:47;17.00;;;12.00;;
37169;SDS011;23062;13.952;100.608;2022-11-09T03:19:12;20.00;;;14.00;;
37169;SDS011;23062;13.952;100.608;2022-11-09T03:23:36;15.00;;;11.00;;
37169;SDS011;23062;13.952;100.608;2022-11-09T03:28:02;16.00;;;12.00;;
37169;SDS011;23062;13.952;100.608;2022-11-09T03:32:28;17.00;;;12.00;;
37169;SDS011;23062;13.952;100.608;2022-11-09T03:36:53;18.00;;;13.00;;
37169;SDS011;23062;13.952;100.608;2022-11-09T03:41:18;19.00;;;14.00;;
37169;SDS011;23062;13.952;100.608;2022-11-09T03:45:42;18.00;;;14.00;;
37169;SDS011;23062;13.952;100.608;2022-11-09T03:50:09;19.00;;;13.00;;
37169;SDS011;23062;13.952;100.608;2022-11-09T03:54:34;18.00;;;13.00;;
37169;SDS011;23062;13.952;100.608;2022-11-09T03:58:59;15.00;;;11.00;;
37169;SDS011;23062;13.952;100.608;2022-11-09T04:03:23;16.00;;;12.00;;
37169;SDS011;23062;13.952;100.608;2022-11-09T04:07:49;17.00;;;13.00;;
37169;SDS011;23062;13.952;100.608;2022-11-09T04:12:14;14.00;;;11.00;;
37169;SDS011;23062;13.952;100.608;2022-11-09T04:16:39;17.00;;;12.00;;
37169;SDS011;23062;13.952;100.608;2022-11-09T04:21:03;17.00;;;13.00;;
37169;SDS011;23062;13.952;100.608;2022-11-09T04:25:28;19.00;;;14.00;;
37169;SDS011;23062;13.952;100.608;2022-11-09T04:29:57;18.00;;;13.00;;
37169;SDS011;23062;13.952;100.608;2022-11-09T04:34:22;18.00;;;13.00;;
37169;SDS011;23062;13.952;100.608;2022-11-09T04:38:47;16.00;;;10.27;;
37169;SDS011;23062;13.952;100.608;2022-11-09T04:43:12;17.00;;;12.00;;
37169;SDS011;23062;13.952;100.608;2022-11-09T04:47:37;16.00;;;12.00;;
37169;SDS011;23062;13.952;100.608;2022-11-09T04:52:01;15.00;;;11.00;;
37169;SDS011;23062;13.952;100.608;2022-11-09T04:56:26;14.00;;;11.00;;
37169;SDS011;23062;13.952;100.608;2022-11-09T05:00:51;17.00;;;12.00;;
37169;SDS011;23062;13.952;100.608;2022-11-09T05:05:16;17.00;;;13.00;;
37169;SDS011;23062;13.952;100.608;2022-11-09T05:09:41;17.00;;;12.00;;
37169;SDS011;23062;13.952;100.608;2022-11-09T05:14:06;18.00;;;14.00;;
37169;SDS011;23062;13.952;100.608;2022-11-09T05:18:30;17.00;;;13.00;;
37169;SDS011;23062;13.952;100.608;2022-11-09T05:22:59;15.00;;;11.00;;
37169;SDS011;23062;13.952;100.608;2022-11-09T05:27:41;18.00;;;13.00;;
37169;SDS011;23062;13.952;100.608;2022-11-09T05:32:06;16.00;;;12.00;;
37169;SDS011;23062;13.952;100.608;2022-11-09T05:36:31;18.00;;;13.00;;
37169;SDS011;23062;13.952;100.608;2022-11-09T05:40:55;20.00;;;14.00;;
37169;SDS011;23062;13.952;100.608;2022-11-09T05:45:21;17.00;;;12.00;;
37169;SDS011;23062;13.952;100.608;2022-11-09T05:49:47;18.00;;;13.00;;
37169;SDS011;23062;13.952;100.608;2022-11-09T05:54:12;17.00;;;12.00;;
37169;SDS011;23062;13.952;100.608;2022-11-09T05:58:38;18.00;;;13.00;;
37169;SDS011;23062;13.952;100.608;2022-11-09T06:03:03;16.00;;;12.00;;
37169;SDS011;23062;13.952;100.608;2022-11-09T06:07:31;14.00;;;10.00;;
37169;SDS011;23062;13.952;100.608;2022-11-09T06:11:56;16.00;;;12.00;;
37169;SDS011;23062;13.952;100.608;2022-11-09T06:16:20;15.00;;;11.00;;
37169;SDS011;23062;13.952;100.608;2022-11-09T06:20:45;17.00;;;12.00;;
37169;SDS011;23062;13.952;100.608;2022-11-09T06:25:11;14.00;;;10.00;;
37169;SDS011;23062;13.952;100.608;2022-11-09T06:29:36;14.00;;;10.00;;
37169;SDS011;23062;13.952;100.608;2022-11-09T06:34:01;15.00;;;11.00;;
37169;SDS011;23062;13.952;100.608;2022-11-09T06:38:26;15.00;;;10.00;;
37169;SDS011;23062;13.952;100.608;2022-11-09T06:42:51;13.00;;;10.00;;
37169;SDS011;23062;13.952;100.608;2022-11-09T06:47:16;12.00;;;9.00;;
37169;SDS011;23062;13.952;100.608;2022-11-09T06:51:41;11.00;;;8.00;;
37169;SDS011;23062;13.952;100.608;2022-11-09T06:56:06;14.00;;;10.00;;
37169;SDS011;23062;13.952;100.608;2022-11-09T07:00:31;13.00;;;10.00;;
37169;SDS011;23062;13.952;100.608;2022-11-09T07:04:56;15.00;;;11.00;;
37169;SDS011;23062;13.952;100.608;2022-11-09T07:09:20;12.00;;;9.00;;
37169;SDS011;23062;13.952;100.608;2022-11-09T07:13:47;11.00;;;8.00;;
37169;SDS011;23062;13.952;100.608;2022-11-09T07:18:12;14.00;;;10.00;;
37169;SDS011;23062;13.952;100.608;2022-11-09T07:22:37;11.00;;;8.00;;
37169;SDS011;23062;13.952;100.608;2022-11-09T07:27:02;13.00;;;10.00;;
37169;SDS011;23062;13.952;100.608;2022-11-09T07:31:27;13.00;;;9.00;;
37169;SDS011;23062;13.952;100.608;2022-11-09T07:35:54;12.00;;;9.00;;
37169;SDS011;23062;13.952;100.608;2022-11-09T07:40:20;14.00;;;9.33;;
37169;SDS011;23062;13.952;100.608;2022-11-09T07:44:44;15.00;;;11.00;;
37169;SDS011;23062;13.952;100.608;2022-11-09T07:49:09;16.00;;;12.00;;
37169;SDS011;23062;13.952;100.608;2022-11-09T07:53:35;14.00;;;10.00;;
37169;SDS011;23062;13.952;100.608;2022-11-09T07:58:00;14.00;;;11.00;;
37169;SDS011;23062;13.952;100.608;2022-11-09T08:02:27;16.00;;;11.00;;
37169;SDS011;23062;13.952;100.608;2022-11-09T08:06:52;17.00;;;13.00;;
37169;SDS011;23062;13.952;100.608;2022-11-09T08:11:18;14.00;;;10.00;;
37169;SDS011;23062;13.952;100.608;2022-11-09T08:15:42;14.00;;;10.00;;
37169;SDS011;23062;13.952;100.608;2022-11-09T08:20:10;17.00;;;13.00;;
37169;SDS011;23062;13.952;100.608;2022-11-09T08:24:34;15.00;;;11.00;;
37169;SDS011;23062;13.952;100.608;2022-11-09T08:28:59;17.00;;;12.00;;
37169;SDS011;23062;13.952;100.608;2022-11-09T08:33:25;14.00;;;11.00;;
37169;SDS011;23062;13.952;100.608;2022-11-09T08:37:51;13.00;;;9.00;;
37169;SDS011;23062;13.952;100.608;2022-11-09T08:42:16;13.00;;;9.00;;
37169;SDS011;23062;13.952;100.608;2022-11-09T08:46:41;14.00;;;11.00;;
37169;SDS011;23062;13.952;100.608;2022-11-09T08:51:07;16.00;;;11.00;;
37169;SDS011;23062;13.952;100.608;2022-11-09T09:08:03;14.00;;;11.00;;
37169;SDS011;23062;13.952;100.608;2022-11-09T09:12:28;16.00;;;11.00;;
37169;SDS011;23062;13.952;100.608;2022-11-09T09:16:53;13.00;;;10.00;;
37169;SDS011;23062;13.952;100.608;2022-11-09T09:21:18;13.00;;;10.00;;
37169;SDS011;23062;13.952;100.608;2022-11-09T09:25:43;12.00;;;9.00;;
37169;SDS011;23062;13.952;100.608;2022-11-09T09:30:08;14.00;;;10.00;;
37169;SDS011;23062;13.952;100.608;2022-11-09T09:34:34;14.00;;;10.00;;
37169;SDS011;23062;13.952;100.608;2022-11-09T09:38:59;12.00;;;9.00;;
37169;SDS011;23062;13.952;100.608;2022-11-09T09:43:46;15.00;;;11.00;;
37169;SDS011;23062;13.952;100.608;2022-11-09T09:48:20;15.00;;;11.00;;
37169;SDS011;23062;13.952;100.608;2022-11-09T09:53:01;13.00;;;10.00;;
37169;SDS011;23062;13.952;100.608;2022-11-09T09:57:36;13.00;;;10.00;;
37169;SDS011;23062;13.952;100.608;2022-11-09T10:02:20;15.00;;;11.00;;
37169;SDS011;23062;13.952;100.608;2022-11-09T10:16:11;18.00;;;13.00;;
37169;SDS011;23062;13.952;100.608;2022-11-09T10:20:49;15.00;;;11.00;;
37169;SDS011;23062;13.952;100.608;2022-11-09T10:25:22;13.00;;;10.00;;
37169;SDS011;23062;13.952;100.608;2022-11-09T10:29:49;14.00;;;11.00;;
37169;SDS011;23062;13.952;100.608;2022-11-09T10:38:45;15.00;;;11.00;;
37169;SDS011;23062;13.952;100.608;2022-11-09T10:43:13;14.00;;;10.00;;
37169;SDS011;23062;13.952;100.608;2022-11-09T10:47:47;17.00;;;12.00;;
37169;SDS011;23062;13.952;100.608;2022-11-09T10:52:30;13.00;;;10.00;;
37169;SDS011;23062;13.952;100.608;2022-11-09T11:01:36;15.00;;;11.00;;
37169;SDS011;23062;13.952;100.608;2022-11-09T11:06:02;14.00;;;11.00;;
37169;SDS011;23062;13.952;100.608;2022-11-09T11:10:29;17.00;;;13.00;;
37169;SDS011;23062;13.952;100.608;2022-11-09T11:14:54;15.00;;;11.00;;
37169;SDS011;23062;13.952;100.608;2022-11-09T11:28:42;16.00;;;12.00;;
37169;SDS011;23062;13.952;100.608;2022-11-09T11:33:13;16.00;;;12.00;;
37169;SDS011;23062;13.952;100.608;2022-11-09T11:42:35;18.00;;;14.00;;
37169;SDS011;23062;13.952;100.608;2022-11-09T11:47:23;18.00;;;13.00;;
37169;SDS011;23062;13.952;100.608;2022-11-09T11:52:09;16.00;;;12.00;;
37169;SDS011;23062;13.952;100.608;2022-11-09T12:01:38;22.00;;;16.00;;
37169;SDS011;23062;13.952;100.608;2022-11-09T12:06:26;23.00;;;18.00;;
37169;SDS011;23062;13.952;100.608;2022-11-09T12:11:11;27.00;;;20.00;;
37169;SDS011;23062;13.952;100.608;2022-11-09T12:20:27;22.00;;;16.00;;
37169;SDS011;23062;13.952;100.608;2022-11-09T12:29:38;22.00;;;17.00;;
37169;SDS011;23062;13.952;100.608;2022-11-09T12:38:41;25.00;;;18.00;;
37169;SDS011;23062;13.952;100.608;2022-11-09T12:48:03;24.00;;;18.00;;
37169;SDS011;23062;13.952;100.608;2022-11-09T12:52:47;28.00;;;20.00;;
37169;SDS011;23062;13.952;100.608;2022-11-09T12:57:14;24.00;;;17.00;;
37169;SDS011;23062;13.952;100.608;2022-11-09T13:01:49;24.00;;;18.00;;
37169;SDS011;23062;13.952;100.608;2022-11-09T13:06:24;26.00;;;20.00;;
37169;SDS011;23062;13.952;100.608;2022-11-09T13:11:06;22.00;;;17.00;;
37169;SDS011;23062;13.952;100.608;2022-11-09T13:15:22;22.00;;;17.00;;
37169;SDS011;23062;13.952;100.608;2022-11-09T13:19:52;24.00;;;19.00;;
37169;SDS011;23062;13.952;100.608;2022-11-09T13:29:22;22.00;;;17.00;;
37169;SDS011;23062;13.952;100.608;2022-11-09T13:33:48;23.00;;;17.00;;
37169;SDS011;23062;13.952;100.608;2022-11-09T13:38:17;23.00;;;18.00;;
37169;SDS011;23062;13.952;100.608;2022-11-09T13:42:42;23.00;;;17.00;;
37169;SDS011;23062;13.952;100.608;2022-11-09T13:47:21;23.00;;;17.00;;
37169;SDS011;23062;13.952;100.608;2022-11-09T13:51:47;19.00;;;15.00;;
37169;SDS011;23062;13.952;100.608;2022-11-09T14:00:57;21.00;;;14.93;;
37169;SDS011;23062;13.952;100.608;2022-11-09T14:05:33;23.00;;;16.80;;
37169;SDS011;23062;13.952;100.608;2022-11-09T14:10:06;20.00;;;15.00;;
37169;SDS011;23062;13.952;100.608;2022-11-09T14:24:30;23.00;;;18.00;;
37169;SDS011;23062;13.952;100.608;2022-11-09T14:28:55;28.00;;;21.00;;
37169;SDS011;23062;13.952;100.608;2022-11-09T14:33:24;25.00;;;19.00;;
37169;SDS011;23062;13.952;100.608;2022-11-09T14:37:50;25.00;;;18.00;;
37169;SDS011;23062;13.952;100.608;2022-11-09T14:42:18;26.00;;;20.00;;
37169;SDS011;23062;13.952;100.608;2022-11-09T14:46:44;24.00;;;18.00;;
37169;SDS011;23062;13.952;100.608;2022-11-09T14:51:11;25.00;;;19.00;;
37169;SDS011;23062;13.952;100.608;2022-11-09T14:55:38;22.00;;;17.00;;
37169;SDS011;23062;13.952;100.608;2022-11-09T15:00:04;26.00;;;19.00;;
37169;SDS011;23062;13.952;100.608;2022-11-09T15:09:21;26.00;;;19.00;;
37169;SDS011;23062;13.952;100.608;2022-11-09T15:13:47;25.00;;;18.00;;
37169;SDS011;23062;13.952;100.608;2022-11-09T15:18:19;25.00;;;18.00;;
37169;SDS011;23062;13.952;100.608;2022-11-09T15:22:51;27.00;;;20.00;;
37169;SDS011;23062;13.952;100.608;2022-11-09T15:27:29;22.00;;;17.00;;
37169;SDS011;23062;13.952;100.608;2022-11-09T15:36:34;24.00;;;18.00;;
37169;SDS011;23062;13.952;100.608;2022-11-09T15:41:01;26.00;;;19.00;;
37169;SDS011;23062;13.952;100.608;2022-11-09T15:45:27;24.00;;;15.87;;
37169;SDS011;23062;13.952;100.608;2022-11-09T15:49:52;26.00;;;17.33;;
37169;SDS011;23062;13.952;100.608;2022-11-09T15:54:19;23.00;;;18.00;;
37169;SDS011;23062;13.952;100.608;2022-11-09T15:58:45;27.00;;;21.00;;
37169;SDS011;23062;13.952;100.608;2022-11-09T16:03:11;24.00;;;18.00;;
37169;SDS011;23062;13.952;100.608;2022-11-09T16:07:37;23.00;;;18.00;;
37169;SDS011;23062;13.952;100.608;2022-11-09T16:12:10;28.00;;;20.00;;
37169;SDS011;23062;13.952;100.608;2022-11-09T16:16:36;24.00;;;19.00;;
37169;SDS011;23062;13.952;100.608;2022-11-09T16:21:15;26.00;;;20.00;;
37169;SDS011;23062;13.952;100.608;2022-11-09T16:25:37;27.00;;;21.00;;
37169;SDS011;23062;13.952;100.608;2022-11-09T16:30:02;26.00;;;20.00;;
37169;SDS011;23062;13.952;100.608;2022-11-09T16:34:28;27.00;;;20.00;;
37169;SDS011;23062;13.952;100.608;2022-11-09T16:38:53;26.00;;;20.00;;
37169;SDS011;23062;13.952;100.608;2022-11-09T16:43:19;30.00;;;22.00;;
37169;SDS011;23062;13.952;100.608;2022-11-09T16:47:45;27.00;;;21.00;;
37169;SDS011;23062;13.952;100.608;2022-11-09T16:52:12;28.00;;;21.00;;
37169;SDS011;23062;13.952;100.608;2022-11-09T16:56:37;32.00;;;25.00;;
37169;SDS011;23062;13.952;100.608;2022-11-09T17:01:02;33.00;;;25.00;;
37169;SDS011;23062;13.952;100.608;2022-11-09T17:05:28;31.00;;;24.00;;
37169;SDS011;23062;13.952;100.608;2022-11-09T17:09:53;30.00;;;23.00;;
37169;SDS011;23062;13.952;100.608;2022-11-09T17:14:18;32.00;;;23.00;;
37169;SDS011;23062;13.952;100.608;2022-11-09T17:18:43;30.00;;;23.00;;
37169;SDS011;23062;13.952;100.608;2022-11-09T17:23:08;33.00;;;25.00;;
37169;SDS011;23062;13.952;100.608;2022-11-09T17:27:35;29.00;;;21.00;;
37169;SDS011;23062;13.952;100.608;2022-11-09T17:32:00;27.00;;;21.00;;
37169;SDS011;23062;13.952;100.608;2022-11-09T17:36:27;33.00;;;26.00;;
37169;SDS011;23062;13.952;100.608;2022-11-09T17:40:52;34.00;;;26.00;;
37169;SDS011;23062;13.952;100.608;2022-11-09T17:45:18;32.00;;;24.00;;
37169;SDS011;23062;13.952;100.608;2022-11-09T17:49:44;32.00;;;25.00;;
37169;SDS011;23062;13.952;100.608;2022-11-09T17:54:10;33.00;;;24.00;;
37169;SDS011;23062;13.952;100.608;2022-11-09T17:58:37;34.00;;;25.00;;
37169;SDS011;23062;13.952;100.608;2022-11-09T18:03:03;38.00;;;28.00;;
37169;SDS011;23062;13.952;100.608;2022-11-09T18:07:28;34.00;;;25.00;;
37169;SDS011;23062;13.952;100.608;2022-11-09T18:11:53;31.00;;;24.00;;
37169;SDS011;23062;13.952;100.608;2022-11-09T18:16:18;35.00;;;26.00;;
37169;SDS011;23062;13.952;100.608;2022-11-09T18:20:44;31.00;;;23.00;;
37169;SDS011;23062;13.952;100.608;2022-11-09T18:25:09;33.00;;;25.00;;
37169;SDS011;23062;13.952;100.608;2022-11-09T18:29:34;33.00;;;25.00;;
37169;SDS011;23062;13.952;100.608;2022-11-09T18:33:59;37.00;;;28.00;;
37169;SDS011;23062;13.952;100.608;2022-11-09T18:38:25;30.00;;;23.00;;
37169;SDS011;23062;13.952;100.608;2022-11-09T18:42:50;31.00;;;24.00;;
37169;SDS011;23062;13.952;100.608;2022-11-09T18:47:16;33.00;;;24.00;;
37169;SDS011;23062;13.952;100.608;2022-11-09T18:51:41;30.00;;;23.00;;
37169;SDS011;23062;13.952;100.608;2022-11-09T18:56:11;24.00;;;17.00;;
37169;SDS011;23062;13.952;100.608;2022-11-09T19:00:39;30.00;;;23.00;;
37169;SDS011;23062;13.952;100.608;2022-11-09T19:05:04;33.00;;;25.00;;
37169;SDS011;23062;13.952;100.608;2022-11-09T19:09:30;26.00;;;20.00;;
37169;SDS011;23062;13.952;100.608;2022-11-09T19:13:59;28.00;;;21.00;;
37169;SDS011;23062;13.952;100.608;2022-11-09T19:18:26;30.00;;;22.00;;
37169;SDS011;23062;13.952;100.608;2022-11-09T19:22:51;26.00;;;20.00;;
37169;SDS011;23062;13.952;100.608;2022-11-09T19:27:16;25.00;;;18.00;;
37169;SDS011;23062;13.952;100.608;2022-11-09T19:31:41;27.00;;;20.00;;
37169;SDS011;23062;13.952;100.608;2022-11-09T19:36:07;22.00;;;17.00;;
37169;SDS011;23062;13.952;100.608;2022-11-09T19:40:33;29.00;;;21.00;;
37169;SDS011;23062;13.952;100.608;2022-11-09T19:44:58;28.00;;;20.00;;
37169;SDS011;23062;13.952;100.608;2022-11-09T19:49:23;22.00;;;16.00;;
37169;SDS011;23062;13.952;100.608;2022-11-09T19:53:53;22.00;;;17.00;;
37169;SDS011;23062;13.952;100.608;2022-11-09T19:58:20;20.00;;;16.00;;
37169;SDS011;23062;13.952;100.608;2022-11-09T20:02:45;22.00;;;16.00;;
37169;SDS011;23062;13.952;100.608;2022-11-09T20:07:10;23.00;;;17.00;;
37169;SDS011;23062;13.952;100.608;2022-11-09T20:11:35;19.00;;;15.00;;
37169;SDS011;23062;13.952;100.608;2022-11-09T20:16:18;21.00;;;16.00;;
37169;SDS011;23062;13.952;100.608;2022-11-09T20:20:43;23.00;;;17.00;;
37169;SDS011;23062;13.952;100.608;2022-11-09T20:25:08;17.00;;;13.00;;
37169;SDS011;23062;13.952;100.608;2022-11-09T20:29:33;21.00;;;16.00;;
37169;SDS011;23062;13.952;100.608;2022-11-09T20:33:58;20.00;;;15.00;;
37169;SDS011;23062;13.952;100.608;2022-11-09T20:38:23;17.00;;;13.00;;
37169;SDS011;23062;13.952;100.608;2022-11-09T20:42:48;21.00;;;15.00;;
37169;SDS011;23062;13.952;100.608;2022-11-09T20:47:13;19.00;;;13.00;;
37169;SDS011;23062;13.952;100.608;2022-11-09T20:51:39;19.00;;;14.00;;
37169;SDS011;23062;13.952;100.608;2022-11-09T20:56:04;19.00;;;14.00;;
37169;SDS011;23062;13.952;100.608;2022-11-09T21:00:29;19.00;;;13.00;;
37169;SDS011;23062;13.952;100.608;2022-11-09T21:04:55;20.00;;;15.00;;
37169;SDS011;23062;13.952;100.608;2022-11-09T21:09:20;17.00;;;13.00;;
37169;SDS011;23062;13.952;100.608;2022-11-09T21:13:48;17.00;;;12.00;;
37169;SDS011;23062;13.952;100.608;2022-11-09T21:18:14;19.00;;;14.00;;
37169;SDS011;23062;13.952;100.608;2022-11-09T21:22:39;20.00;;;15.00;;
37169;SDS011;23062;13.952;100.608;2022-11-09T21:27:11;21.00;;;15.00;;
37169;SDS011;23062;13.952;100.608;2022-11-09T21:31:49;19.00;;;14.00;;
37169;SDS011;23062;13.952;100.608;2022-11-09T21:36:14;23.00;;;18.00;;
37169;SDS011;23062;13.952;100.608;2022-11-09T21:40:39;20.00;;;16.00;;
37169;SDS011;23062;13.952;100.608;2022-11-09T21:45:04;26.00;;;19.00;;
37169;SDS011;23062;13.952;100.608;2022-11-09T21:49:30;22.00;;;17.00;;
37169;SDS011;23062;13.952;100.608;2022-11-09T21:53:55;22.00;;;17.00;;
37169;SDS011;23062;13.952;100.608;2022-11-09T21:58:20;25.00;;;19.00;;
37169;SDS011;23062;13.952;100.608;2022-11-09T22:02:45;21.00;;;16.00;;
37169;SDS011;23062;13.952;100.608;2022-11-09T22:07:10;20.00;;;14.00;;
37169;SDS011;23062;13.952;100.608;2022-11-09T22:11:34;18.00;;;14.00;;
37169;SDS011;23062;13.952;100.608;2022-11-09T22:16:18;21.00;;;16.00;;
37169;SDS011;23062;13.952;100.608;2022-11-09T22:20:44;23.00;;;17.00;;
37169;SDS011;23062;13.952;100.608;2022-11-09T22:25:19;25.00;;;18.00;;
37169;SDS011;23062;13.952;100.608;2022-11-09T22:29:44;22.00;;;16.00;;
37169;SDS011;23062;13.952;100.608;2022-11-09T22:34:10;23.00;;;17.00;;
37169;SDS011;23062;13.952;100.608;2022-11-09T22:38:35;21.00;;;15.00;;
37169;SDS011;23062;13.952;100.608;2022-11-09T22:43:01;23.00;;;16.00;;
37169;SDS011;23062;13.952;100.608;2022-11-09T22:47:27;20.00;;;15.00;;
37169;SDS011;23062;13.952;100.608;2022-11-09T22:51:52;22.00;;;17.00;;
37169;SDS011;23062;13.952;100.608;2022-11-09T22:56:17;20.00;;;15.00;;
37169;SDS011;23062;13.952;100.608;2022-11-09T23:00:42;24.00;;;18.00;;
37169;SDS011;23062;13.952;100.608;2022-11-09T23:05:08;22.00;;;16.00;;
37169;SDS011;23062;13.952;100.608;2022-11-09T23:09:33;28.00;;;20.00;;
37169;SDS011;23062;13.952;100.608;2022-11-09T23:13:58;25.00;;;18.00;;
37169;SDS011;23062;13.952;100.608;2022-11-09T23:18:25;23.00;;;17.00;;
37169;SDS011;23062;13.952;100.608;2022-11-09T23:23:09;22.00;;;16.00;;
37169;SDS011;23062;13.952;100.608;2022-11-09T23:27:34;23.00;;;18.00;;
37169;SDS011;23062;13.952;100.608;2022-11-09T23:31:59;25.00;;;19.00;;
37169;SDS011;23062;13.952;100.608;2022-11-09T23:36:24;24.00;;;17.00;;
37169;SDS011;23062;13.952;100.608;2022-11-09T23:40:49;23.00;;;17.00;;
37169;SDS011;23062;13.952;100.608;2022-11-09T23:45:15;21.00;;;16.00;;
37169;SDS011;23062;13.952;100.608;2022-11-09T23:49:40;26.00;;;19.00;;
37169;SDS011;23062;13.952;100.608;2022-11-09T23:54:04;24.00;;;17.00;;
37169;SDS011;23062;13.952;100.608;2022-11-09T23:58:30;25.00;;;18.00;;
